createdAt,value
2023-05-05T00:02:09.364Z,64.42
2023-05-05T00:04:36.134Z,64.67
2023-05-05T00:07:02.539Z,64.73
2023-05-05T00:09:29.657Z,64.99
2023-05-05T00:11:56.047Z,65.04
2023-05-05T00:14:22.502Z,63.70
2023-05-05T00:16:48.944Z,63.34
2023-05-05T00:19:15.400Z,65.69
2023-05-05T00:21:41.823Z,64.94
2023-05-05T00:24:10.127Z,65.70
2023-05-05T00:26:36.548Z,64.92
2023-05-05T00:29:02.969Z,64.02
2023-05-05T00:31:29.440Z,63.86
2023-05-05T00:33:56.357Z,64.77
2023-05-05T00:36:23.002Z,64.13
2023-05-05T00:38:49.472Z,64.23
2023-05-05T00:41:15.984Z,65.41
2023-05-05T00:43:42.421Z,65.80
2023-05-05T00:46:26.068Z,66.17
2023-05-05T00:48:53.769Z,65.58
2023-05-05T00:51:20.991Z,66.37
2023-05-05T00:53:48.193Z,65.95
2023-05-05T00:56:16.839Z,65.27
2023-05-05T00:58:43.987Z,65.63
2023-05-05T01:01:11.609Z,65.55
2023-05-05T01:03:39.510Z,64.97
2023-05-05T01:06:20.978Z,66.45
2023-05-05T01:09:19.470Z,66.49
2023-05-05T01:11:48.782Z,65.21
2023-05-05T01:14:44.196Z,65.72
2023-05-05T01:17:18.767Z,64.46
2023-05-05T01:20:03.036Z,64.38
2023-05-05T01:22:39.486Z,65.47
2023-05-05T01:25:12.238Z,65.54
2023-05-05T01:27:55.604Z,66.00
2023-05-05T01:30:43.837Z,65.58
2023-05-05T01:33:15.455Z,66.24
2023-05-05T01:51:36.548Z,71.04
2023-05-05T01:54:05.970Z,71.68
2023-05-05T01:56:34.545Z,70.64
2023-05-05T01:59:02.376Z,70.29
2023-05-05T02:01:30.385Z,69.66
2023-05-05T02:03:59.009Z,69.38
2023-05-05T02:06:29.787Z,69.77
2023-05-05T02:08:58.490Z,69.60
2023-05-05T02:11:26.889Z,70.14
2023-05-05T02:13:54.657Z,69.63
2023-05-05T02:16:22.708Z,69.56
2023-05-05T02:18:49.805Z,69.55
2023-05-05T02:21:18.166Z,69.57
2023-05-05T02:23:48.187Z,69.57
2023-05-05T02:26:16.987Z,69.22
2023-05-05T02:29:05.614Z,69.27
2023-05-05T02:31:37.445Z,69.63
2023-05-05T02:34:05.802Z,69.44
2023-05-05T02:36:37.229Z,69.89
2023-05-05T02:39:22.515Z,69.41
2023-05-05T02:41:51.291Z,70.39
2023-05-05T02:44:19.953Z,69.41
2023-05-05T02:46:47.226Z,70.16
2023-05-05T02:49:15.475Z,69.69
2023-05-05T02:51:41.900Z,69.85
2023-05-05T02:54:08.588Z,69.82
2023-05-05T02:56:38.069Z,70.60
2023-05-05T02:59:16.463Z,70.96
2023-05-05T03:01:57.312Z,70.27
2023-05-05T03:04:31.952Z,70.50
2023-05-05T03:07:14.435Z,70.22
2023-05-05T03:09:46.037Z,70.58
2023-05-05T03:12:18.285Z,70.14
2023-05-05T03:14:46.053Z,70.45
2023-05-05T03:17:13.539Z,70.47
2023-05-05T03:19:44.559Z,70.87
2023-05-05T03:22:11.472Z,70.66
2023-05-05T03:24:37.891Z,70.60
2023-05-05T03:27:04.403Z,71.42
2023-05-05T03:29:31.047Z,71.38
2023-05-05T03:31:58.509Z,71.54
2023-05-05T03:34:24.944Z,71.12
2023-05-05T03:36:51.359Z,71.21
2023-05-05T03:39:18.849Z,70.40
2023-05-05T03:41:45.460Z,70.44
2023-05-05T03:44:11.958Z,70.27
2023-05-05T03:46:39.088Z,70.44
2023-05-05T03:49:05.607Z,70.79
2023-05-05T03:51:32.235Z,70.24
2023-05-05T03:53:58.744Z,71.07
2023-05-05T03:56:25.196Z,71.57
2023-05-05T03:58:51.751Z,71.05
2023-05-05T04:01:18.194Z,71.60
2023-05-05T04:03:44.770Z,71.11
2023-05-05T04:06:11.550Z,70.55
2023-05-05T04:08:38.002Z,71.05
2023-05-05T04:11:04.528Z,70.82
2023-05-05T04:13:31.215Z,71.10
2023-05-05T04:15:59.063Z,71.02
2023-05-05T04:18:26.310Z,71.07
2023-05-05T04:20:52.762Z,70.56
2023-05-05T04:23:19.179Z,71.18
2023-05-05T04:25:47.356Z,70.69
2023-05-05T04:28:13.824Z,69.54
2023-05-05T04:30:40.999Z,70.40
2023-05-05T04:33:07.749Z,70.32
2023-05-05T04:35:34.784Z,70.94
2023-05-05T04:38:01.215Z,71.17
2023-05-05T04:40:27.783Z,68.93
2023-05-05T04:43:18.720Z,70.68
2023-05-05T04:45:55.436Z,69.83
2023-05-05T04:48:22.023Z,69.26
2023-05-05T04:50:48.710Z,67.92
2023-05-05T04:53:15.160Z,69.88
2023-05-05T04:55:41.723Z,71.22
2023-05-05T04:58:08.136Z,71.15
2023-05-05T05:00:36.847Z,70.91
2023-05-05T05:03:04.065Z,71.13
2023-05-05T05:05:30.666Z,69.08
2023-05-05T05:07:57.123Z,69.54
2023-05-05T05:10:23.637Z,69.76
2023-05-05T05:12:50.125Z,69.35
2023-05-05T05:15:16.592Z,68.61
2023-05-05T05:17:43.092Z,68.18
2023-05-05T05:20:13.061Z,67.72
2023-05-05T05:22:39.565Z,67.76
2023-05-05T05:25:06.519Z,68.32
2023-05-05T05:27:33.042Z,67.21
2023-05-05T05:29:59.672Z,64.81
2023-05-05T05:32:26.451Z,63.68
2023-05-05T05:34:52.842Z,65.61
2023-05-05T05:37:19.339Z,64.26
2023-05-05T05:39:51.602Z,64.11
2023-05-05T05:42:18.023Z,65.83
2023-05-05T05:44:44.512Z,64.10
2023-05-05T05:47:11.148Z,61.45
2023-05-05T05:49:37.778Z,63.88
2023-05-05T05:52:04.600Z,64.52
2023-05-05T05:54:32.696Z,65.75
2023-05-05T05:56:59.144Z,67.16
2023-05-05T05:59:25.687Z,66.47
2023-05-05T06:01:52.289Z,61.03
2023-05-05T06:04:18.860Z,66.13
2023-05-05T06:06:45.592Z,63.71
2023-05-05T06:09:12.088Z,60.87
2023-05-05T06:11:38.649Z,60.87
2023-05-05T06:14:05.111Z,60.85
2023-05-05T06:16:31.680Z,59.34
2023-05-05T06:18:58.192Z,60.93
2023-05-05T06:21:24.709Z,61.79
2023-05-05T06:23:51.194Z,59.61
2023-05-05T06:26:17.671Z,60.13
2023-05-05T06:28:44.689Z,58.25
2023-05-05T06:31:12.967Z,57.65
2023-05-05T06:33:39.555Z,59.61
2023-05-05T06:36:06.377Z,58.21
2023-05-05T06:38:32.807Z,56.64
2023-05-05T06:40:59.321Z,57.41
2023-05-05T06:43:25.858Z,57.52
2023-05-05T06:45:52.337Z,57.00
2023-05-05T06:48:18.872Z,55.60
2023-05-05T06:50:45.390Z,54.89
2023-05-05T06:53:11.906Z,56.08
2023-05-05T06:55:38.401Z,53.42
2023-05-05T06:58:04.841Z,51.83
2023-05-05T07:00:31.314Z,49.97
2023-05-05T07:02:58.626Z,52.48
2023-05-05T07:05:25.134Z,51.50
2023-05-05T07:07:56.753Z,50.96
2023-05-05T07:10:24.603Z,51.70
2023-05-05T07:12:52.103Z,51.93
2023-05-05T07:15:57.367Z,51.98
2023-05-05T07:18:55.622Z,54.08
2023-05-05T07:21:34.541Z,54.66
2023-05-05T07:24:03.432Z,51.31
2023-05-05T07:26:32.697Z,53.86
2023-05-05T07:28:59.578Z,52.42
2023-05-05T07:31:26.787Z,49.96
2023-05-05T07:33:53.466Z,48.48
2023-05-05T07:36:20.519Z,51.49
2023-05-05T07:38:47.014Z,49.77
2023-05-05T07:41:13.609Z,51.77
2023-05-05T07:43:44.655Z,48.15
2023-05-05T07:46:12.894Z,47.99
2023-05-05T07:48:41.559Z,45.04
2023-05-05T07:51:11.917Z,43.55
2023-05-05T07:53:38.388Z,42.83
2023-05-05T07:56:09.979Z,39.59
2023-05-05T07:58:36.604Z,40.89
2023-05-05T08:01:03.234Z,41.26
2023-05-05T08:03:29.940Z,42.88
2023-05-05T08:05:56.565Z,42.07
2023-05-05T08:08:25.064Z,46.63
2023-05-05T08:10:55.126Z,48.27
2023-05-05T08:13:21.807Z,47.36
2023-05-05T08:15:48.326Z,45.35
2023-05-05T08:18:14.931Z,46.04
2023-05-05T08:20:41.670Z,47.66
2023-05-05T08:23:08.057Z,48.40
2023-05-05T08:25:34.650Z,49.83
2023-05-05T08:28:02.369Z,46.39
2023-05-05T08:31:02.522Z,46.21
2023-05-05T08:33:31.614Z,45.85
2023-05-05T08:35:58.315Z,45.25
2023-05-05T08:38:24.795Z,46.12
2023-05-05T08:40:52.124Z,47.13
2023-05-05T08:43:23.947Z,45.84
2023-05-05T08:45:51.721Z,46.35
2023-05-05T08:48:23.183Z,45.04
2023-05-05T08:50:59.832Z,43.09
2023-05-05T08:53:46.719Z,42.40
2023-05-05T08:56:13.671Z,45.64
2023-05-05T08:58:41.915Z,43.84
2023-05-05T09:01:09.940Z,44.24
2023-05-05T09:03:39.234Z,45.85
2023-05-05T09:06:06.943Z,44.81
2023-05-05T09:09:35.897Z,46.99
2023-05-05T09:12:03.058Z,46.48
2023-05-05T09:14:29.553Z,44.59
2023-05-05T09:16:56.261Z,46.87
2023-05-05T09:19:22.731Z,46.65
2023-05-05T09:21:52.010Z,43.82
2023-05-05T09:24:18.829Z,45.63
2023-05-05T09:26:46.269Z,46.16
2023-05-05T09:29:22.871Z,44.91
2023-05-05T09:32:08.976Z,45.19
2023-05-05T09:34:36.320Z,45.93
2023-05-05T09:37:06.304Z,46.56
2023-05-05T09:39:33.088Z,44.93
2023-05-05T09:41:59.632Z,45.71
2023-05-05T09:44:37.167Z,42.68
2023-05-05T09:47:18.146Z,44.66
2023-05-05T09:49:59.231Z,47.35
2023-05-05T09:52:26.016Z,44.93
2023-05-05T09:54:58.397Z,44.68
2023-05-05T09:57:33.091Z,44.70
2023-05-05T10:00:01.500Z,44.08
2023-05-05T10:02:33.481Z,43.85
2023-05-05T10:05:11.182Z,44.00
2023-05-05T10:07:39.088Z,45.77
2023-05-05T10:10:08.657Z,45.10
2023-05-05T10:12:37.133Z,44.38
2023-05-05T10:15:10.129Z,45.16
2023-05-05T10:18:05.381Z,47.81
2023-05-05T10:20:37.688Z,46.30
2023-05-05T10:23:08.266Z,43.93
2023-05-05T10:25:42.194Z,43.96
2023-05-05T10:28:14.725Z,45.05
2023-05-05T10:30:44.226Z,44.28
2023-05-05T10:35:53.781Z,42.83
2023-05-05T10:38:20.880Z,43.54
2023-05-05T10:40:48.815Z,44.44
2023-05-05T10:43:15.537Z,44.12
2023-05-05T10:45:43.143Z,45.25
2023-05-05T10:48:18.708Z,44.18
2023-05-05T10:50:51.233Z,42.97
2023-05-05T10:53:28.848Z,42.69
2023-05-05T10:56:18.136Z,40.47
2023-05-05T10:58:58.881Z,41.47
2023-05-05T11:01:34.964Z,41.26
2023-05-05T11:04:21.914Z,41.33
2023-05-05T11:07:14.321Z,42.59
2023-05-05T11:09:58.619Z,42.06
2023-05-05T11:12:25.176Z,43.83
2023-05-05T11:15:36.346Z,42.98
2023-05-05T11:18:07.825Z,42.74
2023-05-05T11:20:39.777Z,42.45
2023-05-05T11:23:06.411Z,43.14
2023-05-05T11:25:36.593Z,42.03
2023-05-05T11:28:11.599Z,42.84
2023-05-05T11:30:56.898Z,39.71
2023-05-05T11:33:38.439Z,40.92
2023-05-05T11:36:07.138Z,42.12
2023-05-05T11:39:05.449Z,42.71
2023-05-05T11:41:51.603Z,39.28
2023-05-05T11:44:20.201Z,41.59
2023-05-05T11:46:52.828Z,41.17
2023-05-05T11:49:39.402Z,43.58
2023-05-05T11:52:07.957Z,40.27
2023-05-05T11:54:41.512Z,40.32
2023-05-05T11:57:09.508Z,40.82
2023-05-05T11:59:56.080Z,41.09
2023-05-05T12:02:23.274Z,39.04
2023-05-05T12:04:51.323Z,39.74
2023-05-05T12:07:19.224Z,40.63
2023-05-05T12:09:47.312Z,39.88
2023-05-05T12:12:14.888Z,39.12
2023-05-05T12:14:46.938Z,40.22
2023-05-05T12:17:13.439Z,37.87
2023-05-05T12:19:46.300Z,40.88
2023-05-05T12:22:19.588Z,40.68
2023-05-05T12:24:55.017Z,38.08
2023-05-05T12:27:22.333Z,41.18
2023-05-05T12:29:49.582Z,41.60
2023-05-05T12:32:28.108Z,38.77
2023-05-05T12:34:57.605Z,39.65
2023-05-05T12:37:26.245Z,40.06
2023-05-05T12:40:01.664Z,42.18
2023-05-05T12:42:46.447Z,40.33
2023-05-05T12:45:17.571Z,40.63
2023-05-05T12:47:44.897Z,39.30
2023-05-05T12:50:11.550Z,39.17
2023-05-05T12:52:45.496Z,39.69
2023-05-05T12:55:12.662Z,38.30
2023-05-05T12:57:58.484Z,39.51
2023-05-05T13:00:25.635Z,39.52
2023-05-05T13:02:53.145Z,38.44
2023-05-05T13:05:33.600Z,42.11
2023-05-05T13:11:59.605Z,39.40
2023-05-05T13:14:45.167Z,39.64
2023-05-05T13:17:12.319Z,40.23
2023-05-05T13:19:47.915Z,40.37
2023-05-05T13:22:24.284Z,42.00
2023-05-05T13:25:14.139Z,40.21
2023-05-05T13:27:42.319Z,38.54
2023-05-05T13:30:09.683Z,38.05
2023-05-05T13:32:36.898Z,41.32
2023-05-05T13:35:16.222Z,39.13
2023-05-05T13:37:47.741Z,38.79
2023-05-05T13:40:21.446Z,38.19
2023-05-05T13:47:16.488Z,38.56
2023-05-05T13:54:13.426Z,40.53
2023-05-05T14:00:51.387Z,40.28
2023-05-05T14:22:42.250Z,37.78
2023-05-05T14:25:11.944Z,38.37
2023-05-05T14:27:45.880Z,39.48
2023-05-05T14:30:41.509Z,38.29
2023-05-05T14:33:18.473Z,39.39
2023-05-05T14:35:53.612Z,40.53
2023-05-05T14:38:33.794Z,41.15
2023-05-05T14:41:30.790Z,38.85
2023-05-05T14:52:29.812Z,39.46
2023-05-05T14:54:56.448Z,39.04
2023-05-05T14:57:23.308Z,38.36
2023-05-05T15:07:59.901Z,39.83
2023-05-05T15:10:39.634Z,40.87
2023-05-05T15:13:33.587Z,40.19
2023-05-05T15:22:01.522Z,40.58
2023-05-05T15:24:52.907Z,37.69
2023-05-05T15:34:34.124Z,40.69
2023-05-05T15:37:46.314Z,42.89
2023-05-05T15:40:58.551Z,40.91
2023-05-05T15:47:08.604Z,42.45
2023-05-05T15:51:04.140Z,41.17
2023-05-05T15:57:20.691Z,43.66
2023-05-05T16:03:58.132Z,41.24
2023-05-05T16:07:09.924Z,44.08
2023-05-05T16:09:39.766Z,42.74
2023-05-05T16:14:36.640Z,45.47
2023-05-05T16:17:03.160Z,43.23
2023-05-05T16:19:31.039Z,43.80
2023-05-05T16:21:57.613Z,45.42
2023-05-05T16:24:24.113Z,45.63
2023-05-05T16:26:51.391Z,45.54
2023-05-05T16:29:17.818Z,43.17
2023-05-05T16:31:44.277Z,44.98
2023-05-05T16:34:10.993Z,43.67
2023-05-05T16:36:37.468Z,44.81
2023-05-05T16:39:04.041Z,44.71
2023-05-05T16:41:30.709Z,45.09
2023-05-05T16:43:57.066Z,45.18
2023-05-05T16:46:23.759Z,44.82
2023-05-05T16:48:50.688Z,45.71
2023-05-05T16:51:17.138Z,44.94
2023-05-05T16:53:43.683Z,47.77
2023-05-05T16:56:13.212Z,45.61
2023-05-05T16:58:40.538Z,45.95
2023-05-05T17:01:07.011Z,47.77
2023-05-05T17:03:33.445Z,47.63
2023-05-05T17:06:00.016Z,45.65
2023-05-05T17:08:26.570Z,46.48
2023-05-05T17:10:53.039Z,45.81
2023-05-05T17:13:19.692Z,46.15
2023-05-05T17:15:50.363Z,45.57
2023-05-05T17:18:18.504Z,47.45
2023-05-05T17:20:45.031Z,46.88
2023-05-05T17:23:12.668Z,46.61
2023-05-05T17:25:39.224Z,46.57
2023-05-05T17:28:05.743Z,47.75
2023-05-05T17:30:32.349Z,49.29
2023-05-05T17:32:58.888Z,48.88
2023-05-05T17:35:28.522Z,49.44
2023-05-05T17:37:55.273Z,48.68
2023-05-05T17:40:22.181Z,48.08
2023-05-05T17:42:48.679Z,48.51
2023-05-05T17:45:15.624Z,48.82
2023-05-05T17:47:42.497Z,48.00
2023-05-05T17:50:11.923Z,48.47
2023-05-05T17:52:38.579Z,48.67
2023-05-05T17:55:11.539Z,49.57
2023-05-05T17:57:40.905Z,49.35
2023-05-05T18:00:09.071Z,49.70
2023-05-05T18:02:37.220Z,49.53
2023-05-05T18:05:04.304Z,49.84
2023-05-05T18:07:31.794Z,50.30
2023-05-05T18:09:58.272Z,51.46
2023-05-05T18:12:24.829Z,51.06
2023-05-05T18:14:52.069Z,51.34
2023-05-05T18:17:18.842Z,50.90
2023-05-05T18:19:47.258Z,50.43
2023-05-05T18:22:15.826Z,51.53
2023-05-05T18:24:42.369Z,50.41
2023-05-05T18:27:09.129Z,51.72
2023-05-05T18:29:39.261Z,52.31
2023-05-05T18:32:12.185Z,52.23
2023-05-05T18:34:38.716Z,53.25
2023-05-05T18:37:05.315Z,51.71
2023-05-05T18:39:31.796Z,54.19
2023-05-05T18:42:03.627Z,54.69
2023-05-05T18:44:30.185Z,52.96
2023-05-05T18:46:56.980Z,54.77
2023-05-05T18:49:24.760Z,55.24
2023-05-05T18:51:52.174Z,58.35
2023-05-05T18:54:18.612Z,59.94
2023-05-05T18:56:45.137Z,59.11
2023-05-05T18:59:11.844Z,61.54
2023-05-05T19:01:38.564Z,61.77
2023-05-05T19:04:08.429Z,58.95
2023-05-05T19:06:39.942Z,59.82
2023-05-05T19:09:06.467Z,57.18
2023-05-05T19:11:32.930Z,58.72
2023-05-05T19:13:59.382Z,57.12
2023-05-05T19:16:27.076Z,56.42
2023-05-05T19:18:58.629Z,55.75
2023-05-05T19:21:27.594Z,56.36
2023-05-05T19:23:54.133Z,57.91
2023-05-05T19:26:20.550Z,57.15
2023-05-05T19:28:47.085Z,57.57
2023-05-05T19:31:13.522Z,57.11
2023-05-05T19:33:44.905Z,56.33
2023-05-05T19:36:14.787Z,55.96
2023-05-05T19:38:44.408Z,54.53
2023-05-05T19:41:11.808Z,56.45
2023-05-05T19:43:38.275Z,53.49
2023-05-05T19:46:04.898Z,54.42
2023-05-05T19:48:31.590Z,53.95
2023-05-05T19:50:58.070Z,54.94
2023-05-05T19:53:25.467Z,54.57
2023-05-05T19:55:51.979Z,55.67
2023-05-05T19:58:18.967Z,54.91
2023-05-05T20:00:45.417Z,54.53
2023-05-05T20:03:48.528Z,55.41
2023-05-05T20:06:15.110Z,55.27
2023-05-05T20:08:41.554Z,54.61
2023-05-05T20:11:08.019Z,54.47
2023-05-05T20:13:36.535Z,55.49
2023-05-05T20:16:03.146Z,56.75
2023-05-05T20:18:29.617Z,55.50
2023-05-05T20:20:56.397Z,55.04
2023-05-05T20:23:22.855Z,56.66
2023-05-05T20:25:49.317Z,56.10
2023-05-05T20:28:16.086Z,56.33
2023-05-05T20:30:42.500Z,56.88
2023-05-05T20:33:09.067Z,56.23
2023-05-05T20:35:35.538Z,56.63
2023-05-05T20:38:04.078Z,58.42
2023-05-05T20:40:31.548Z,57.10
2023-05-05T20:42:58.739Z,57.61
2023-05-05T20:45:25.629Z,57.67
2023-05-05T20:47:52.245Z,56.47
2023-05-05T20:50:22.121Z,56.41
2023-05-05T20:52:49.484Z,56.70
2023-05-05T20:55:15.981Z,57.52
2023-05-05T20:57:42.450Z,56.10
2023-05-05T21:00:09.682Z,57.22
2023-05-05T21:02:36.451Z,57.92
2023-05-05T21:05:03.168Z,56.48
2023-05-05T21:07:31.385Z,56.80
2023-05-05T21:10:00.960Z,57.74
2023-05-05T21:12:29.001Z,57.95
2023-05-05T21:14:59.485Z,57.89
2023-05-05T21:17:27.133Z,57.38
2023-05-05T21:19:54.195Z,57.25
2023-05-05T21:22:21.242Z,56.04
2023-05-05T21:24:48.318Z,55.64
2023-05-05T21:27:15.172Z,56.96
2023-05-05T21:29:41.657Z,57.45
2023-05-05T21:32:09.419Z,57.46
2023-05-05T21:34:36.665Z,56.49
2023-05-05T21:37:03.571Z,57.07
2023-05-05T21:39:33.292Z,56.67
2023-05-05T21:42:00.654Z,56.90
2023-05-05T21:44:28.265Z,57.46
2023-05-05T21:46:55.415Z,57.29
2023-05-05T21:49:22.188Z,56.41
2023-05-05T21:51:48.593Z,55.92
2023-05-05T21:54:15.071Z,56.51
2023-05-05T21:56:41.649Z,55.45
2023-05-05T21:59:08.125Z,57.32
2023-05-05T22:01:35.124Z,57.89
2023-05-05T22:04:01.715Z,58.99
2023-05-05T22:06:28.222Z,60.33
2023-05-05T22:08:54.822Z,60.98
2023-05-05T22:11:21.424Z,62.96
2023-05-05T22:13:48.002Z,64.72
2023-05-05T22:16:16.105Z,66.82
2023-05-05T22:18:42.535Z,67.39
2023-05-05T22:21:09.191Z,69.69
2023-05-05T22:23:37.148Z,69.85
2023-05-05T22:26:04.860Z,68.89
2023-05-05T22:28:31.276Z,70.51
2023-05-05T22:30:57.805Z,70.47
2023-05-05T22:33:24.476Z,70.56
2023-05-05T22:35:52.157Z,69.87
2023-05-05T22:38:18.807Z,67.47
2023-05-05T22:40:45.926Z,67.37
2023-05-05T22:43:12.357Z,69.82
2023-05-05T22:45:38.960Z,71.42
2023-05-05T22:48:06.017Z,69.78
2023-05-05T22:50:32.470Z,72.56
2023-05-05T22:52:58.909Z,72.28
2023-05-05T22:55:25.387Z,71.72
2023-05-05T22:57:52.748Z,71.77
2023-05-05T23:00:19.335Z,71.89
2023-05-05T23:02:45.921Z,74.24
2023-05-05T23:05:12.690Z,72.54
2023-05-05T23:07:39.399Z,72.07
2023-05-05T23:10:06.388Z,73.34
2023-05-05T23:12:32.903Z,72.45
2023-05-05T23:14:59.376Z,73.64
2023-05-05T23:17:25.947Z,73.83
2023-05-05T23:19:52.901Z,74.92
2023-05-05T23:22:19.328Z,75.24
2023-05-05T23:24:45.771Z,79.07
2023-05-05T23:27:12.680Z,77.49
2023-05-05T23:29:39.250Z,78.31
2023-05-05T23:32:06.506Z,78.37
2023-05-05T23:34:32.972Z,78.26
2023-05-05T23:36:59.405Z,78.82
2023-05-05T23:39:25.838Z,80.69
2023-05-05T23:41:52.356Z,81.25
2023-05-05T23:44:18.849Z,83.83
2023-05-05T23:46:45.360Z,83.53
2023-05-05T23:49:11.867Z,83.54
2023-05-05T23:51:38.312Z,84.32
2023-05-05T23:54:04.777Z,84.78
2023-05-05T23:56:31.234Z,87.79
2023-05-05T23:58:57.690Z,87.20
